UMMS 082330Z 15005MPS 5000 BR OVC003 M02/M02 Q1013 NOSIG RMK QBB100
QNH:(hPa/inHg/mmHg)1013 / 29.91 / 760
QFE:(hPa/inHg/mmHg)988 / 29.17 / 741
Temperature-2
Dew Point-2
Visibility5000
WeatherMist
Cloud CoverOVC (300);
Transition Altitude6000 ft.
Transition LevelFL70
SQUAWK